createdAt,value
2022-11-25T00:01:08.784Z,47.62
2022-11-25T00:03:37.256Z,47.61
2022-11-25T00:06:13.668Z,47.77
2022-11-25T00:08:42.528Z,47.87
2022-11-25T00:11:11.358Z,47.51
2022-11-25T00:13:40.230Z,47.95
2022-11-25T00:16:11.520Z,47.74
2022-11-25T00:18:40.034Z,48.02
2022-11-25T00:21:09.075Z,47.89
2022-11-25T00:23:38.224Z,47.95
2022-11-25T00:26:10.418Z,47.74
2022-11-25T00:28:38.917Z,47.96
2022-11-25T00:31:10.478Z,47.83
2022-11-25T00:33:39.140Z,47.76
2022-11-25T00:36:11.684Z,48.02
2022-11-25T00:38:39.531Z,47.68
2022-11-25T00:41:24.786Z,48.00
2022-11-25T00:44:10.120Z,47.92
2022-11-25T00:46:39.419Z,47.79
2022-11-25T00:49:07.885Z,48.08
2022-11-25T00:51:35.756Z,47.88
2022-11-25T00:54:03.642Z,48.12
2022-11-25T00:56:31.563Z,48.20
2022-11-25T00:58:59.787Z,48.05
2022-11-25T01:01:28.100Z,47.91
2022-11-25T01:03:57.290Z,47.92
2022-11-25T01:06:25.466Z,48.35
2022-11-25T01:08:55.313Z,48.02
2022-11-25T01:11:24.486Z,48.32
2022-11-25T01:14:00.620Z,47.85
2022-11-25T01:16:29.867Z,48.28
2022-11-25T01:18:59.435Z,48.08
2022-11-25T01:21:29.243Z,48.15
2022-11-25T01:23:57.683Z,48.13
2022-11-25T01:26:26.340Z,48.34
2022-11-25T01:28:55.723Z,48.37
2022-11-25T01:31:26.042Z,48.51
2022-11-25T01:33:56.281Z,48.42
2022-11-25T01:36:26.253Z,48.67
2022-11-25T01:38:55.619Z,48.44
2022-11-25T01:41:25.279Z,48.32
2022-11-25T01:44:20.680Z,48.65
2022-11-25T01:47:02.131Z,49.05
2022-11-25T01:49:41.327Z,48.70
2022-11-25T01:52:17.821Z,48.91
2022-11-25T01:54:51.539Z,48.98
2022-11-25T01:57:25.354Z,48.88
2022-11-25T01:59:56.764Z,48.72
2022-11-25T02:02:25.444Z,48.83
2022-11-25T02:04:53.765Z,48.89
2022-11-25T02:07:32.444Z,49.31
2022-11-25T02:10:01.566Z,48.70
2022-11-25T02:12:30.590Z,48.87
2022-11-25T02:15:00.225Z,48.94
2022-11-25T02:17:28.145Z,49.07
2022-11-25T02:20:02.608Z,49.35
2022-11-25T02:22:52.993Z,49.27
2022-11-25T02:25:25.915Z,49.16
2022-11-25T02:27:55.972Z,50.17
2022-11-25T02:30:23.784Z,49.53
2022-11-25T02:32:51.844Z,48.95
2022-11-25T02:35:29.562Z,49.70
2022-11-25T02:38:02.108Z,48.98
2022-11-25T02:40:32.114Z,49.57
2022-11-25T02:43:01.972Z,49.42
2022-11-25T02:45:38.287Z,49.68
2022-11-25T02:48:06.561Z,49.50
2022-11-25T02:53:25.923Z,49.61
2022-11-25T02:55:55.310Z,49.67
2022-11-25T02:58:23.561Z,49.69
2022-11-25T03:00:52.010Z,49.84
2022-11-25T03:03:20.295Z,49.80
2022-11-25T03:05:48.536Z,49.75
2022-11-25T03:08:17.261Z,49.63
2022-11-25T03:10:45.492Z,49.50
2022-11-25T03:13:15.715Z,49.34
2022-11-25T03:15:44.098Z,49.45
2022-11-25T03:18:11.923Z,49.77
2022-11-25T03:20:39.920Z,49.86
2022-11-25T03:23:08.338Z,49.75
2022-11-25T03:25:36.996Z,49.87
2022-11-25T03:28:05.613Z,49.57
2022-11-25T03:30:35.554Z,49.36
2022-11-25T03:33:04.844Z,49.71
2022-11-25T03:35:32.717Z,49.63
2022-11-25T03:38:04.044Z,49.75
2022-11-25T03:40:35.454Z,50.06
2022-11-25T03:43:03.412Z,49.98
2022-11-25T03:45:31.395Z,49.94
2022-11-25T03:48:03.026Z,49.48
2022-11-25T03:50:30.903Z,49.57
2022-11-25T03:53:01.792Z,49.68
2022-11-25T03:55:29.724Z,50.01
2022-11-25T03:57:57.593Z,49.71
2022-11-25T04:00:27.060Z,49.75
2022-11-25T04:03:03.395Z,50.03
2022-11-25T04:05:33.402Z,50.09
2022-11-25T04:08:06.426Z,50.00
2022-11-25T04:10:35.657Z,50.09
2022-11-25T04:13:03.783Z,49.95
2022-11-25T04:15:38.737Z,50.43
2022-11-25T04:18:08.855Z,50.25
2022-11-25T04:20:36.666Z,50.64
2022-11-25T04:23:08.121Z,50.43
2022-11-25T04:25:43.207Z,50.69
2022-11-25T04:28:21.344Z,50.49
2022-11-25T04:30:49.274Z,50.33
2022-11-25T04:33:18.446Z,50.35
2022-11-25T04:35:48.606Z,50.76
2022-11-25T04:38:16.661Z,50.79
2022-11-25T04:40:44.623Z,50.81
2022-11-25T04:43:18.781Z,50.37
2022-11-25T04:46:12.974Z,50.96
2022-11-25T04:48:41.606Z,50.43
2022-11-25T04:51:10.040Z,50.77
2022-11-25T04:53:38.021Z,50.58
2022-11-25T04:56:08.145Z,50.41
2022-11-25T04:59:00.233Z,50.47
2022-11-25T05:01:28.676Z,50.58
2022-11-25T05:04:05.975Z,51.05
2022-11-25T05:06:35.214Z,50.77
2022-11-25T05:09:04.556Z,51.06
2022-11-25T05:11:34.154Z,50.94
2022-11-25T05:14:02.211Z,51.21
2022-11-25T05:16:30.195Z,51.23
2022-11-25T05:18:58.224Z,51.33
2022-11-25T05:21:28.890Z,51.28
2022-11-25T05:23:56.781Z,51.15
2022-11-25T05:26:27.724Z,51.22
2022-11-25T05:28:58.652Z,51.15
2022-11-25T05:31:26.633Z,51.52
2022-11-25T05:33:55.171Z,51.13
2022-11-25T05:36:25.017Z,51.77
2022-11-25T05:38:54.370Z,51.86
2022-11-25T05:41:31.485Z,51.32
2022-11-25T05:43:59.811Z,51.63
2022-11-25T05:46:27.831Z,51.88
2022-11-25T05:48:57.415Z,51.74
2022-11-25T05:51:26.162Z,51.89
2022-11-25T05:53:57.814Z,51.78
2022-11-25T05:56:30.168Z,51.49
2022-11-25T05:59:00.179Z,51.91
2022-11-25T06:01:40.370Z,51.98
2022-11-25T06:04:08.923Z,52.33
2022-11-25T06:06:37.916Z,52.24
2022-11-25T06:09:07.315Z,52.40
2022-11-25T06:11:36.170Z,52.52
2022-11-25T06:14:04.378Z,52.47
2022-11-25T06:16:32.321Z,52.75
2022-11-25T06:19:13.815Z,52.44
2022-11-25T06:21:41.701Z,52.92
2022-11-25T06:24:10.898Z,52.83
2022-11-25T06:26:39.872Z,52.76
2022-11-25T06:29:07.852Z,53.06
2022-11-25T06:31:35.843Z,53.11
2022-11-25T06:34:26.906Z,52.92
2022-11-25T06:36:55.101Z,52.96
2022-11-25T06:39:24.286Z,52.90
2022-11-25T06:41:52.490Z,53.18
2022-11-25T06:44:20.373Z,53.11
2022-11-25T06:46:48.236Z,53.06
2022-11-25T06:49:16.572Z,53.56
2022-11-25T06:51:44.411Z,53.25
2022-11-25T06:54:12.230Z,53.45
2022-11-25T06:56:41.433Z,53.21
2022-11-25T06:59:09.652Z,53.09
2022-11-25T07:01:38.237Z,53.44
2022-11-25T07:04:06.833Z,53.50
2022-11-25T07:06:35.223Z,53.28
2022-11-25T07:09:03.566Z,53.14
2022-11-25T07:11:34.358Z,53.65
2022-11-25T07:14:05.932Z,53.71
2022-11-25T07:16:34.971Z,53.39
2022-11-25T07:19:03.765Z,53.18
2022-11-25T07:21:33.360Z,53.30
2022-11-25T07:24:03.155Z,53.26
2022-11-25T07:26:33.271Z,53.51
2022-11-25T07:29:06.377Z,53.49
2022-11-25T07:31:40.521Z,53.72
2022-11-25T07:34:13.189Z,53.68
2022-11-25T07:36:42.802Z,53.56
2022-11-25T07:39:13.774Z,53.56
2022-11-25T07:41:42.181Z,53.26
2022-11-25T07:44:14.015Z,53.67
2022-11-25T07:46:52.292Z,53.22
2022-11-25T07:49:24.898Z,53.38
2022-11-25T07:51:54.604Z,53.78
2022-11-25T07:54:23.684Z,53.46
2022-11-25T07:56:51.776Z,53.57
2022-11-25T07:59:22.791Z,53.45
2022-11-25T08:01:51.501Z,53.63
2022-11-25T08:04:21.003Z,53.37
2022-11-25T08:06:51.238Z,53.83
2022-11-25T08:09:22.625Z,53.50
2022-11-25T08:11:51.517Z,53.47
2022-11-25T08:14:22.851Z,53.94
2022-11-25T08:16:51.022Z,53.91
2022-11-25T08:19:19.395Z,53.91
2022-11-25T08:21:50.164Z,54.16
2022-11-25T08:24:20.299Z,53.82
2022-11-25T08:26:48.922Z,53.81
2022-11-25T08:29:18.170Z,54.31
2022-11-25T08:31:48.112Z,54.23
2022-11-25T08:34:19.934Z,54.18
2022-11-25T08:36:49.607Z,54.34
2022-11-25T08:42:09.140Z,54.12
2022-11-25T08:44:37.786Z,54.29
2022-11-25T08:47:10.294Z,54.25
2022-11-25T08:49:41.329Z,54.14
2022-11-25T08:52:10.408Z,54.52
2022-11-25T08:54:38.602Z,54.38
2022-11-25T08:57:06.565Z,54.55
2022-11-25T08:59:34.581Z,54.65
2022-11-25T09:02:03.063Z,54.55
2022-11-25T09:04:32.403Z,54.58
2022-11-25T09:07:01.982Z,54.66
2022-11-25T09:09:29.973Z,54.47
2022-11-25T09:12:03.077Z,54.74
2022-11-25T09:14:30.980Z,54.89
2022-11-25T09:16:58.789Z,54.65
2022-11-25T09:19:26.720Z,54.49
2022-11-25T09:21:55.962Z,54.37
2022-11-25T09:24:23.851Z,54.23
2022-11-25T09:26:52.065Z,54.22
2022-11-25T09:29:19.882Z,54.10
2022-11-25T09:31:53.032Z,54.22
2022-11-25T09:34:22.677Z,54.51
2022-11-25T09:36:50.451Z,54.49
2022-11-25T09:39:19.680Z,54.00
2022-11-25T09:42:18.014Z,54.34
2022-11-25T09:45:17.491Z,54.11
2022-11-25T09:47:57.348Z,54.39
2022-11-25T09:50:35.235Z,54.14
2022-11-25T09:53:13.032Z,54.43
2022-11-25T09:55:48.851Z,54.08
2022-11-25T09:58:26.921Z,54.23
2022-11-25T10:00:55.017Z,54.18
2022-11-25T10:03:34.285Z,54.27
2022-11-25T10:06:06.084Z,53.87
2022-11-25T10:08:39.576Z,53.83
2022-11-25T10:11:20.086Z,53.76
2022-11-25T10:13:54.666Z,53.71
2022-11-25T10:16:34.407Z,53.65
2022-11-25T10:19:04.003Z,53.51
2022-11-25T10:21:31.951Z,53.80
2022-11-25T10:23:59.878Z,53.34
2022-11-25T10:26:37.936Z,53.51
2022-11-25T10:29:22.612Z,53.16
2022-11-25T10:31:59.475Z,53.36
2022-11-25T10:34:34.788Z,53.51
2022-11-25T10:37:09.776Z,52.94
2022-11-25T10:39:37.665Z,53.15
2022-11-25T10:42:15.229Z,52.63
2022-11-25T10:44:43.183Z,52.80
2022-11-25T10:47:28.266Z,52.38
2022-11-25T10:50:09.515Z,52.19
2022-11-25T10:52:42.999Z,52.22
2022-11-25T10:55:13.409Z,52.36
2022-11-25T10:57:43.469Z,52.57
2022-11-25T11:00:26.903Z,52.11
2022-11-25T11:02:59.536Z,52.45
2022-11-25T11:05:29.931Z,52.11
2022-11-25T11:08:20.453Z,52.07
2022-11-25T11:10:54.326Z,52.10
2022-11-25T11:13:33.170Z,51.77
2022-11-25T11:16:01.331Z,52.09
2022-11-25T11:18:41.111Z,52.07
2022-11-25T11:21:22.907Z,51.80
2022-11-25T11:23:53.023Z,52.20
2022-11-25T11:26:25.048Z,51.56
2022-11-25T11:29:14.064Z,51.53
2022-11-25T11:31:46.391Z,51.31
2022-11-25T11:34:35.587Z,51.57
2022-11-25T11:37:22.710Z,51.19
2022-11-25T11:40:02.523Z,51.03
2022-11-25T11:42:40.450Z,51.34
2022-11-25T11:45:24.862Z,51.28
2022-11-25T11:48:05.480Z,51.40
2022-11-25T11:50:39.179Z,51.64
2022-11-25T11:53:12.485Z,51.12
2022-11-25T11:56:11.780Z,51.24
2022-11-25T11:58:55.162Z,51.12
2022-11-25T12:01:38.056Z,51.10
2022-11-25T12:04:16.996Z,51.12
2022-11-25T12:06:51.849Z,50.98
2022-11-25T12:09:24.755Z,51.07
2022-11-25T12:11:54.546Z,51.78
2022-11-25T12:14:31.966Z,50.64
2022-11-25T12:17:08.221Z,50.85
2022-11-25T12:19:44.338Z,50.17
2022-11-25T12:22:19.650Z,50.13
2022-11-25T12:24:52.318Z,50.66
2022-11-25T12:27:24.305Z,50.67
2022-11-25T12:29:58.547Z,50.74
2022-11-25T12:32:52.223Z,49.89
2022-11-25T12:35:29.167Z,50.04
2022-11-25T12:38:04.947Z,50.16
2022-11-25T12:40:37.114Z,50.04
2022-11-25T12:43:27.167Z,49.75
2022-11-25T12:46:06.621Z,49.49
2022-11-25T12:48:40.480Z,49.46
2022-11-25T12:51:18.238Z,49.17
2022-11-25T12:53:55.793Z,48.89
2022-11-25T12:56:39.025Z,48.88
2022-11-25T12:59:33.661Z,48.90
2022-11-25T13:02:23.250Z,48.76
2022-11-25T13:05:39.525Z,48.61
2022-11-25T13:08:20.112Z,48.27
2022-11-25T13:11:06.342Z,48.45
2022-11-25T13:13:47.870Z,47.70
2022-11-25T13:16:17.563Z,48.47
2022-11-25T13:18:46.801Z,48.26
2022-11-25T13:21:18.058Z,48.32
2022-11-25T13:23:52.150Z,48.05
2022-11-25T13:26:53.267Z,48.05
2022-11-25T13:29:54.983Z,48.01
2022-11-25T13:32:30.205Z,47.42
2022-11-25T13:35:32.173Z,47.17
2022-11-25T13:38:01.645Z,47.78
2022-11-25T13:40:39.155Z,47.33
2022-11-25T13:43:20.794Z,48.01
2022-11-25T13:45:48.875Z,47.83
2022-11-25T13:48:20.807Z,47.99
2022-11-25T13:53:41.144Z,47.76
2022-11-25T13:56:24.443Z,47.50
2022-11-25T13:59:21.583Z,47.52
2022-11-25T14:01:55.806Z,47.22
2022-11-25T14:04:44.371Z,47.17
2022-11-25T14:07:21.976Z,47.74
2022-11-25T14:10:12.478Z,47.19
2022-11-25T14:13:10.183Z,47.19
2022-11-25T14:15:55.803Z,47.56
2022-11-25T14:21:51.291Z,47.54
2022-11-25T14:24:30.612Z,47.54
2022-11-25T14:27:00.914Z,47.49
2022-11-25T14:29:31.498Z,47.48
2022-11-25T14:32:03.642Z,47.72
2022-11-25T14:34:37.691Z,47.34
2022-11-25T14:37:14.902Z,47.07
2022-11-25T14:39:50.306Z,47.26
2022-11-25T14:42:23.354Z,47.72
2022-11-25T14:44:53.129Z,47.49
2022-11-25T14:47:24.509Z,47.27
2022-11-25T14:52:44.811Z,47.89
2022-11-25T14:55:13.261Z,47.71
2022-11-25T14:57:46.047Z,47.49
2022-11-25T15:00:15.605Z,48.28
2022-11-25T15:02:54.634Z,47.72
2022-11-25T15:05:26.161Z,47.54
2022-11-25T15:08:03.396Z,47.65
2022-11-25T15:10:39.273Z,47.26
2022-11-25T15:13:15.019Z,47.54
2022-11-25T15:15:46.817Z,47.73
2022-11-25T15:18:21.053Z,47.51
2022-11-25T15:20:54.462Z,47.82
2022-11-25T15:23:27.908Z,47.48
2022-11-25T15:25:57.691Z,47.57
2022-11-25T15:28:26.888Z,48.07
2022-11-25T15:30:59.757Z,47.31
2022-11-25T15:33:28.531Z,48.19
2022-11-25T15:35:57.071Z,48.17
2022-11-25T15:38:41.009Z,47.35
2022-11-25T15:41:19.090Z,47.39
2022-11-25T15:43:50.570Z,47.71
2022-11-25T15:46:19.156Z,47.72
2022-11-25T15:48:49.499Z,47.80
2022-11-25T15:51:32.861Z,47.56
2022-11-25T15:54:05.536Z,47.97
2022-11-25T15:56:37.135Z,47.73
2022-11-25T15:59:06.657Z,47.95
2022-11-25T16:01:39.982Z,47.98
2022-11-25T16:04:17.643Z,47.96
2022-11-25T16:06:55.574Z,47.83
2022-11-25T16:09:25.389Z,48.41
2022-11-25T16:11:53.284Z,47.89
2022-11-25T16:14:27.910Z,48.06
2022-11-25T16:17:02.824Z,47.68
2022-11-25T16:19:37.752Z,48.04
2022-11-25T16:22:06.996Z,48.04
2022-11-25T16:24:50.496Z,47.75
2022-11-25T16:27:24.194Z,47.87
2022-11-25T16:29:56.774Z,47.96
2022-11-25T16:32:26.787Z,48.50
2022-11-25T16:34:57.501Z,48.27
2022-11-25T16:37:25.710Z,48.47
2022-11-25T16:39:53.581Z,48.08
2022-11-25T16:42:22.841Z,48.06
2022-11-25T16:44:52.345Z,48.42
2022-11-25T16:47:22.987Z,48.18
2022-11-25T16:49:50.853Z,47.85
2022-11-25T16:52:18.689Z,48.23
2022-11-25T16:54:47.398Z,48.38
2022-11-25T16:57:19.080Z,48.17
2022-11-25T16:59:52.119Z,48.35
2022-11-25T17:02:24.261Z,48.12
2022-11-25T17:04:52.218Z,48.39
2022-11-25T17:07:36.030Z,48.03
2022-11-25T17:10:05.139Z,48.06
2022-11-25T17:12:35.293Z,47.94
2022-11-25T17:15:06.283Z,48.01
2022-11-25T17:17:36.005Z,47.99
2022-11-25T17:20:04.114Z,48.48
2022-11-25T17:22:39.107Z,48.05
2022-11-25T17:25:08.485Z,48.13
2022-11-25T17:27:36.719Z,48.49
2022-11-25T17:30:07.916Z,48.06
2022-11-25T17:32:37.314Z,48.47
2022-11-25T17:35:05.614Z,47.96
2022-11-25T17:37:33.501Z,48.02
2022-11-25T17:40:01.269Z,48.28
2022-11-25T17:42:31.261Z,48.59
2022-11-25T17:44:59.446Z,48.11
2022-11-25T17:47:27.391Z,48.17
2022-11-25T17:49:57.786Z,48.31
2022-11-25T17:52:25.715Z,48.50
2022-11-25T17:54:53.677Z,48.19
2022-11-25T17:57:23.277Z,48.31
2022-11-25T17:59:51.323Z,48.13
2022-11-25T18:02:23.808Z,48.11
2022-11-25T18:04:51.732Z,48.72
2022-11-25T18:07:20.871Z,48.35
2022-11-25T18:09:49.145Z,48.30
2022-11-25T18:12:20.509Z,48.34
2022-11-25T18:14:48.578Z,48.19
2022-11-25T18:17:19.120Z,48.67
2022-11-25T18:19:54.574Z,48.15
2022-11-25T18:22:25.013Z,48.54
2022-11-25T18:24:53.388Z,48.36
2022-11-25T18:27:24.448Z,48.69
2022-11-25T18:29:52.976Z,48.41
2022-11-25T18:32:22.571Z,48.87
2022-11-25T18:34:51.474Z,48.44
2022-11-25T18:37:19.285Z,49.06
2022-11-25T18:39:50.840Z,49.29
2022-11-25T18:42:25.342Z,48.91
2022-11-25T18:44:54.263Z,49.08
2022-11-25T18:47:22.165Z,49.06
2022-11-25T18:49:55.380Z,49.14
2022-11-25T18:52:24.059Z,48.75
2022-11-25T18:54:53.334Z,49.15
2022-11-25T18:57:21.386Z,49.04
2022-11-25T19:00:10.352Z,48.69
2022-11-25T19:02:38.462Z,49.10
2022-11-25T19:05:16.890Z,48.62
2022-11-25T19:07:45.089Z,48.83
2022-11-25T19:10:15.114Z,48.56
2022-11-25T19:12:45.319Z,48.65
2022-11-25T19:15:17.069Z,48.64
2022-11-25T19:17:48.141Z,49.10
2022-11-25T19:20:16.966Z,48.70
2022-11-25T19:22:45.084Z,49.14
2022-11-25T19:25:15.011Z,48.97
2022-11-25T19:27:45.616Z,48.76
2022-11-25T19:30:17.529Z,48.81
2022-11-25T19:32:49.505Z,48.81
2022-11-25T19:35:23.921Z,49.19
2022-11-25T19:37:51.919Z,48.83
2022-11-25T19:40:22.687Z,49.29
2022-11-25T19:42:52.838Z,48.76
2022-11-25T19:45:21.571Z,48.97
2022-11-25T19:47:51.416Z,49.05
2022-11-25T19:50:22.726Z,49.11
2022-11-25T19:52:52.358Z,49.01
2022-11-25T19:55:24.455Z,48.88
2022-11-25T19:57:53.104Z,48.74
2022-11-25T20:00:22.945Z,49.01
2022-11-25T20:02:54.224Z,48.74
2022-11-25T20:05:25.353Z,48.88
2022-11-25T20:07:53.432Z,49.17
2022-11-25T20:10:24.639Z,49.19
2022-11-25T20:12:54.514Z,49.04
2022-11-25T20:15:22.394Z,49.28
2022-11-25T20:17:53.120Z,49.08
2022-11-25T20:20:24.677Z,49.23
2022-11-25T20:22:58.361Z,49.19
2022-11-25T20:25:28.197Z,49.08
2022-11-25T20:27:56.324Z,49.47
2022-11-25T20:30:25.861Z,49.19
2022-11-25T20:32:53.767Z,49.15
2022-11-25T20:35:22.824Z,49.08
2022-11-25T20:37:57.485Z,49.22
2022-11-25T20:40:33.328Z,49.36
2022-11-25T20:43:01.360Z,49.57
2022-11-25T20:45:29.540Z,49.48
2022-11-25T20:47:59.073Z,49.69
2022-11-25T20:50:29.911Z,49.35
2022-11-25T20:52:58.325Z,49.65
2022-11-25T20:55:27.856Z,49.38
2022-11-25T20:57:55.899Z,49.35
2022-11-25T21:00:26.329Z,49.76
2022-11-25T21:02:57.342Z,49.76
2022-11-25T21:05:27.460Z,49.45
2022-11-25T21:07:55.691Z,49.60
2022-11-25T21:10:26.997Z,49.61
2022-11-25T21:12:57.338Z,49.82
2022-11-25T21:15:28.362Z,49.44
2022-11-25T21:17:57.553Z,49.89
2022-11-25T21:20:25.642Z,49.81
2022-11-25T21:22:56.718Z,49.40
2022-11-25T21:25:26.105Z,49.20
2022-11-25T21:27:54.154Z,49.78
2022-11-25T21:30:24.972Z,49.57
2022-11-25T21:32:54.972Z,49.85
2022-11-25T21:35:23.943Z,49.89
2022-11-25T21:37:51.972Z,49.87
2022-11-25T21:40:33.191Z,49.68
2022-11-25T21:43:02.047Z,49.88
2022-11-25T21:45:31.303Z,49.76
2022-11-25T21:48:00.282Z,49.85
2022-11-25T21:50:29.982Z,49.98
2022-11-25T21:52:57.983Z,49.83
2022-11-25T21:55:26.320Z,49.82
2022-11-25T21:57:54.534Z,49.54
2022-11-25T22:00:25.659Z,49.98
2022-11-25T22:02:55.572Z,50.04
2022-11-25T22:05:25.898Z,49.93
2022-11-25T22:07:54.856Z,50.32
2022-11-25T22:10:25.873Z,50.19
2022-11-25T22:12:53.772Z,49.85
2022-11-25T22:15:22.969Z,49.70
2022-11-25T22:17:55.116Z,50.16
2022-11-25T22:20:30.455Z,50.11
2022-11-25T22:22:58.574Z,50.18
2022-11-25T22:25:29.073Z,49.88
2022-11-25T22:27:57.171Z,50.06
2022-11-25T22:30:25.255Z,49.96
2022-11-25T22:33:01.171Z,49.90
2022-11-25T22:35:29.562Z,50.07
2022-11-25T22:37:57.430Z,50.06
2022-11-25T22:40:25.365Z,49.90
2022-11-25T22:42:55.571Z,49.89
2022-11-25T22:45:30.471Z,50.08
2022-11-25T22:48:01.660Z,49.76
2022-11-25T22:50:32.423Z,50.21
2022-11-25T22:53:01.621Z,50.14
2022-11-25T22:55:30.954Z,49.57
2022-11-25T22:58:00.030Z,50.02
2022-11-25T23:00:29.504Z,49.78
2022-11-25T23:03:00.904Z,49.70
2022-11-25T23:05:33.127Z,49.86
2022-11-25T23:08:01.835Z,49.65
2022-11-25T23:10:31.428Z,50.05
2022-11-25T23:12:59.429Z,49.51
2022-11-25T23:15:27.604Z,49.92
2022-11-25T23:17:57.038Z,49.88
2022-11-25T23:20:30.782Z,49.93
2022-11-25T23:22:59.897Z,49.99
2022-11-25T23:25:27.737Z,49.25
2022-11-25T23:27:55.952Z,49.54
2022-11-25T23:30:24.806Z,49.85
2022-11-25T23:32:54.607Z,49.46
2022-11-25T23:35:28.508Z,49.51
2022-11-25T23:37:58.229Z,49.61
2022-11-25T23:40:27.679Z,49.22
2022-11-25T23:42:57.152Z,49.61
2022-11-25T23:45:28.108Z,49.49
2022-11-25T23:47:57.174Z,49.49
2022-11-25T23:50:29.974Z,49.14
2022-11-25T23:53:02.064Z,49.52
2022-11-25T23:55:35.716Z,49.41
2022-11-25T23:58:05.288Z,49.43
